Terminal Aerodrome Forecast
Issued by NWS

Home | Current Version | Previous Version | Text Only | Print | Product List | Glossary On
Versions: 1 2 3 4 5 6 7 8 9 10 11 12 13 14 15 16 17 18 19 20 21 22 23 24
983
FTUS43 KEAX 290059 AAA
TAFMKC
TAF AMD
KMKC 290059Z 2901/2924 08008KT P6SM -TSRA BKN050CB
     FM290200 13005KT P6SM SCT250
     FM291700 15006KT P6SM SCT050=

USA.gov is the U.S. government's official web portal to all federal, state and local government web resources and services.